sensor_id;sensor_type;location;lat;lon;timestamp;temperature;humidity
43043;DHT22;28667;50.758;6.096;2024-02-14T00:00:01;8.10;99.90
43043;DHT22;28667;50.758;6.096;2024-02-14T00:02:27;8.10;99.90
43043;DHT22;28667;50.758;6.096;2024-02-14T00:04:53;8.10;99.90
43043;DHT22;28667;50.758;6.096;2024-02-14T00:07:20;8.10;99.90
43043;DHT22;28667;50.758;6.096;2024-02-14T00:09:46;8.20;99.90
43043;DHT22;28667;50.758;6.096;2024-02-14T00:12:12;8.20;99.90
43043;DHT22;28667;50.758;6.096;2024-02-14T00:14:38;8.20;99.90
43043;DHT22;28667;50.758;6.096;2024-02-14T00:17:04;8.20;99.90
43043;DHT22;28667;50.758;6.096;2024-02-14T00:19:31;8.20;99.90
43043;DHT22;28667;50.758;6.096;2024-02-14T00:21:57;8.30;99.90
43043;DHT22;28667;50.758;6.096;2024-02-14T00:24:23;8.20;99.90
43043;DHT22;28667;50.758;6.096;2024-02-14T00:26:50;8.30;99.90
43043;DHT22;28667;50.758;6.096;2024-02-14T00:29:16;8.20;99.90
43043;DHT22;28667;50.758;6.096;2024-02-14T00:31:42;8.30;99.90
43043;DHT22;28667;50.758;6.096;2024-02-14T00:34:10;8.30;99.90
43043;DHT22;28667;50.758;6.096;2024-02-14T00:36:36;8.30;99.90
43043;DHT22;28667;50.758;6.096;2024-02-14T00:39:02;8.30;99.90
43043;DHT22;28667;50.758;6.096;2024-02-14T00:41:28;8.30;99.90
43043;DHT22;28667;50.758;6.096;2024-02-14T00:43:57;8.40;99.90
43043;DHT22;28667;50.758;6.096;2024-02-14T00:46:23;8.40;99.90
43043;DHT22;28667;50.758;6.096;2024-02-14T00:48:49;8.30;99.90
43043;DHT22;28667;50.758;6.096;2024-02-14T00:51:15;8.30;99.90
43043;DHT22;28667;50.758;6.096;2024-02-14T00:53:41;8.30;99.90
43043;DHT22;28667;50.758;6.096;2024-02-14T00:56:07;8.40;99.90
43043;DHT22;28667;50.758;6.096;2024-02-14T00:58:33;8.40;99.90
43043;DHT22;28667;50.758;6.096;2024-02-14T01:00:59;8.40;99.90
43043;DHT22;28667;50.758;6.096;2024-02-14T01:03:24;8.40;99.90
43043;DHT22;28667;50.758;6.096;2024-02-14T01:05:50;8.40;99.90
43043;DHT22;28667;50.758;6.096;2024-02-14T01:08:16;8.40;99.90
43043;DHT22;28667;50.758;6.096;2024-02-14T01:10:42;8.40;99.90
43043;DHT22;28667;50.758;6.096;2024-02-14T01:13:08;8.40;99.90
43043;DHT22;28667;50.758;6.096;2024-02-14T01:15:34;8.40;99.90
43043;DHT22;28667;50.758;6.096;2024-02-14T01:18:00;8.40;99.90
43043;DHT22;28667;50.758;6.096;2024-02-14T01:20:26;8.30;99.90
43043;DHT22;28667;50.758;6.096;2024-02-14T01:22:51;8.30;99.90
43043;DHT22;28667;50.758;6.096;2024-02-14T01:25:18;8.40;99.90
43043;DHT22;28667;50.758;6.096;2024-02-14T01:27:44;8.40;99.90
43043;DHT22;28667;50.758;6.096;2024-02-14T01:30:11;8.40;99.90
43043;DHT22;28667;50.758;6.096;2024-02-14T01:32:37;8.40;99.90
43043;DHT22;28667;50.758;6.096;2024-02-14T01:35:04;8.30;99.90
43043;DHT22;28667;50.758;6.096;2024-02-14T01:37:30;8.30;99.90
43043;DHT22;28667;50.758;6.096;2024-02-14T01:39:56;8.30;99.90
43043;DHT22;28667;50.758;6.096;2024-02-14T01:42:22;8.30;99.90
43043;DHT22;28667;50.758;6.096;2024-02-14T01:44:47;8.30;99.90
43043;DHT22;28667;50.758;6.096;2024-02-14T01:47:13;8.30;99.90
43043;DHT22;28667;50.758;6.096;2024-02-14T01:49:39;8.40;99.90
43043;DHT22;28667;50.758;6.096;2024-02-14T01:52:09;8.40;99.90
43043;DHT22;28667;50.758;6.096;2024-02-14T01:54:36;8.40;99.90
43043;DHT22;28667;50.758;6.096;2024-02-14T01:57:02;8.30;99.90
43043;DHT22;28667;50.758;6.096;2024-02-14T01:59:28;8.30;99.90
43043;DHT22;28667;50.758;6.096;2024-02-14T02:01:55;8.40;99.90
43043;DHT22;28667;50.758;6.096;2024-02-14T02:04:21;8.40;99.90
43043;DHT22;28667;50.758;6.096;2024-02-14T02:06:47;8.40;99.90
43043;DHT22;28667;50.758;6.096;2024-02-14T02:09:13;8.40;99.90
43043;DHT22;28667;50.758;6.096;2024-02-14T02:11:57;8.40;99.90
43043;DHT22;28667;50.758;6.096;2024-02-14T02:14:23;8.40;99.90
43043;DHT22;28667;50.758;6.096;2024-02-14T02:16:49;8.40;99.90
43043;DHT22;28667;50.758;6.096;2024-02-14T02:19:15;8.40;99.90
43043;DHT22;28667;50.758;6.096;2024-02-14T02:21:44;8.40;99.90
43043;DHT22;28667;50.758;6.096;2024-02-14T02:24:11;8.50;99.90
43043;DHT22;28667;50.758;6.096;2024-02-14T02:26:37;8.50;99.90
43043;DHT22;28667;50.758;6.096;2024-02-14T02:29:03;8.50;99.90
43043;DHT22;28667;50.758;6.096;2024-02-14T02:31:31;8.50;99.90
43043;DHT22;28667;50.758;6.096;2024-02-14T02:33:56;8.50;99.90
43043;DHT22;28667;50.758;6.096;2024-02-14T02:36:23;8.60;99.90
43043;DHT22;28667;50.758;6.096;2024-02-14T02:38:50;8.60;99.90
43043;DHT22;28667;50.758;6.096;2024-02-14T02:41:16;8.60;99.90
43043;DHT22;28667;50.758;6.096;2024-02-14T02:43:42;8.60;99.90
43043;DHT22;28667;50.758;6.096;2024-02-14T02:46:11;8.60;99.90
43043;DHT22;28667;50.758;6.096;2024-02-14T02:48:37;8.60;99.90
43043;DHT22;28667;50.758;6.096;2024-02-14T02:51:02;8.70;99.90
43043;DHT22;28667;50.758;6.096;2024-02-14T02:53:28;8.70;99.90
43043;DHT22;28667;50.758;6.096;2024-02-14T02:55:54;8.70;99.90
43043;DHT22;28667;50.758;6.096;2024-02-14T02:58:20;8.70;99.90
43043;DHT22;28667;50.758;6.096;2024-02-14T03:00:46;8.70;99.90
43043;DHT22;28667;50.758;6.096;2024-02-14T03:03:15;8.70;99.90
43043;DHT22;28667;50.758;6.096;2024-02-14T03:05:42;8.70;99.90
43043;DHT22;28667;50.758;6.096;2024-02-14T03:08:10;8.60;99.90
43043;DHT22;28667;50.758;6.096;2024-02-14T03:10:41;8.60;99.90
43043;DHT22;28667;50.758;6.096;2024-02-14T03:13:07;8.60;99.90
43043;DHT22;28667;50.758;6.096;2024-02-14T03:15:37;8.60;99.90
43043;DHT22;28667;50.758;6.096;2024-02-14T03:18:03;8.50;99.90
43043;DHT22;28667;50.758;6.096;2024-02-14T03:20:33;8.50;99.90
43043;DHT22;28667;50.758;6.096;2024-02-14T03:22:59;8.50;99.90
43043;DHT22;28667;50.758;6.096;2024-02-14T03:25:25;8.40;99.90
43043;DHT22;28667;50.758;6.096;2024-02-14T03:27:51;8.40;99.90
43043;DHT22;28667;50.758;6.096;2024-02-14T03:30:22;8.40;99.90
43043;DHT22;28667;50.758;6.096;2024-02-14T03:32:48;8.40;99.90
43043;DHT22;28667;50.758;6.096;2024-02-14T03:35:14;8.40;99.90
43043;DHT22;28667;50.758;6.096;2024-02-14T03:37:45;8.40;99.90
43043;DHT22;28667;50.758;6.096;2024-02-14T03:40:13;8.40;99.90
43043;DHT22;28667;50.758;6.096;2024-02-14T03:42:38;8.40;99.90
43043;DHT22;28667;50.758;6.096;2024-02-14T03:45:06;8.40;99.90
43043;DHT22;28667;50.758;6.096;2024-02-14T03:47:32;8.40;99.90
43043;DHT22;28667;50.758;6.096;2024-02-14T03:49:59;8.40;99.90
43043;DHT22;28667;50.758;6.096;2024-02-14T03:52:25;8.50;99.90
43043;DHT22;28667;50.758;6.096;2024-02-14T03:54:52;8.40;99.90
43043;DHT22;28667;50.758;6.096;2024-02-14T03:57:17;8.40;99.90
43043;DHT22;28667;50.758;6.096;2024-02-14T03:59:44;8.40;99.90
43043;DHT22;28667;50.758;6.096;2024-02-14T04:02:10;8.40;99.90
43043;DHT22;28667;50.758;6.096;2024-02-14T04:04:41;8.40;99.90
43043;DHT22;28667;50.758;6.096;2024-02-14T04:07:07;8.40;99.90
43043;DHT22;28667;50.758;6.096;2024-02-14T04:09:36;8.40;99.90
43043;DHT22;28667;50.758;6.096;2024-02-14T04:12:02;8.40;99.90
43043;DHT22;28667;50.758;6.096;2024-02-14T04:14:28;8.40;99.90
43043;DHT22;28667;50.758;6.096;2024-02-14T04:16:54;8.40;99.90
43043;DHT22;28667;50.758;6.096;2024-02-14T04:19:20;8.40;99.90
43043;DHT22;28667;50.758;6.096;2024-02-14T04:21:46;8.40;99.90
43043;DHT22;28667;50.758;6.096;2024-02-14T04:24:12;8.30;99.90
43043;DHT22;28667;50.758;6.096;2024-02-14T04:26:37;8.30;99.90
43043;DHT22;28667;50.758;6.096;2024-02-14T04:29:03;8.40;99.90
43043;DHT22;28667;50.758;6.096;2024-02-14T04:31:29;8.40;99.90
43043;DHT22;28667;50.758;6.096;2024-02-14T04:33:58;8.40;99.90
43043;DHT22;28667;50.758;6.096;2024-02-14T04:36:24;8.40;99.90
43043;DHT22;28667;50.758;6.096;2024-02-14T04:38:49;8.40;99.90
43043;DHT22;28667;50.758;6.096;2024-02-14T04:41:15;8.40;99.90
43043;DHT22;28667;50.758;6.096;2024-02-14T04:43:42;8.40;99.90
43043;DHT22;28667;50.758;6.096;2024-02-14T04:46:08;8.40;99.90
43043;DHT22;28667;50.758;6.096;2024-02-14T04:48:34;8.40;99.90
43043;DHT22;28667;50.758;6.096;2024-02-14T04:51:01;8.40;99.90
43043;DHT22;28667;50.758;6.096;2024-02-14T04:53:27;8.30;99.90
43043;DHT22;28667;50.758;6.096;2024-02-14T04:55:53;8.30;99.90
43043;DHT22;28667;50.758;6.096;2024-02-14T04:58:19;8.30;99.90
43043;DHT22;28667;50.758;6.096;2024-02-14T05:00:45;8.30;99.90
43043;DHT22;28667;50.758;6.096;2024-02-14T05:03:11;8.20;99.90
43043;DHT22;28667;50.758;6.096;2024-02-14T05:05:37;8.20;99.90
43043;DHT22;28667;50.758;6.096;2024-02-14T05:08:04;8.20;99.90
43043;DHT22;28667;50.758;6.096;2024-02-14T05:10:30;8.20;99.90
43043;DHT22;28667;50.758;6.096;2024-02-14T05:12:57;8.20;99.90
43043;DHT22;28667;50.758;6.096;2024-02-14T05:15:22;8.20;99.90
43043;DHT22;28667;50.758;6.096;2024-02-14T05:17:48;8.20;99.90
43043;DHT22;28667;50.758;6.096;2024-02-14T05:20:15;8.20;99.90
43043;DHT22;28667;50.758;6.096;2024-02-14T05:22:41;8.20;99.90
43043;DHT22;28667;50.758;6.096;2024-02-14T05:25:07;8.20;99.90
43043;DHT22;28667;50.758;6.096;2024-02-14T05:27:35;8.30;99.90
43043;DHT22;28667;50.758;6.096;2024-02-14T05:30:01;8.30;99.90
43043;DHT22;28667;50.758;6.096;2024-02-14T05:32:31;8.30;99.90
43043;DHT22;28667;50.758;6.096;2024-02-14T05:34:57;8.30;99.90
43043;DHT22;28667;50.758;6.096;2024-02-14T05:37:23;8.30;99.90
43043;DHT22;28667;50.758;6.096;2024-02-14T05:39:49;8.30;99.90
43043;DHT22;28667;50.758;6.096;2024-02-14T05:42:15;8.30;99.90
43043;DHT22;28667;50.758;6.096;2024-02-14T05:44:42;8.40;99.90
43043;DHT22;28667;50.758;6.096;2024-02-14T05:47:09;8.30;99.90
43043;DHT22;28667;50.758;6.096;2024-02-14T05:49:35;8.30;99.90
43043;DHT22;28667;50.758;6.096;2024-02-14T05:52:01;8.30;99.90
43043;DHT22;28667;50.758;6.096;2024-02-14T05:54:27;8.40;99.90
43043;DHT22;28667;50.758;6.096;2024-02-14T05:56:52;8.40;99.90
43043;DHT22;28667;50.758;6.096;2024-02-14T05:59:18;8.40;99.90
43043;DHT22;28667;50.758;6.096;2024-02-14T06:01:44;8.40;99.90
43043;DHT22;28667;50.758;6.096;2024-02-14T06:04:09;8.40;99.90
43043;DHT22;28667;50.758;6.096;2024-02-14T06:06:35;8.40;99.90
43043;DHT22;28667;50.758;6.096;2024-02-14T06:09:01;8.40;99.90
43043;DHT22;28667;50.758;6.096;2024-02-14T06:11:28;8.40;99.90
43043;DHT22;28667;50.758;6.096;2024-02-14T06:13:53;8.40;99.90
43043;DHT22;28667;50.758;6.096;2024-02-14T06:16:19;8.40;99.90
43043;DHT22;28667;50.758;6.096;2024-02-14T06:18:45;8.40;99.90
43043;DHT22;28667;50.758;6.096;2024-02-14T06:21:11;8.50;99.90
43043;DHT22;28667;50.758;6.096;2024-02-14T06:23:36;8.50;99.90
43043;DHT22;28667;50.758;6.096;2024-02-14T06:26:04;8.50;99.90
43043;DHT22;28667;50.758;6.096;2024-02-14T06:28:30;8.40;99.90
43043;DHT22;28667;50.758;6.096;2024-02-14T06:30:55;8.40;99.90
43043;DHT22;28667;50.758;6.096;2024-02-14T06:33:21;8.40;99.90
43043;DHT22;28667;50.758;6.096;2024-02-14T06:35:47;8.40;99.90
43043;DHT22;28667;50.758;6.096;2024-02-14T06:38:12;8.50;99.90
43043;DHT22;28667;50.758;6.096;2024-02-14T06:40:38;8.50;99.90
43043;DHT22;28667;50.758;6.096;2024-02-14T06:43:04;8.50;99.90
43043;DHT22;28667;50.758;6.096;2024-02-14T06:45:32;8.50;99.90
43043;DHT22;28667;50.758;6.096;2024-02-14T06:47:58;8.60;99.90
43043;DHT22;28667;50.758;6.096;2024-02-14T06:50:23;8.60;99.90
43043;DHT22;28667;50.758;6.096;2024-02-14T06:52:54;8.70;99.90
43043;DHT22;28667;50.758;6.096;2024-02-14T06:55:19;8.60;99.90
43043;DHT22;28667;50.758;6.096;2024-02-14T06:57:45;8.60;99.90
43043;DHT22;28667;50.758;6.096;2024-02-14T07:00:11;8.70;99.90
43043;DHT22;28667;50.758;6.096;2024-02-14T07:02:37;8.70;99.90
43043;DHT22;28667;50.758;6.096;2024-02-14T07:05:03;8.60;99.90
43043;DHT22;28667;50.758;6.096;2024-02-14T07:07:29;8.60;99.90
43043;DHT22;28667;50.758;6.096;2024-02-14T07:09:54;8.60;99.90
43043;DHT22;28667;50.758;6.096;2024-02-14T07:12:20;8.70;99.90
43043;DHT22;28667;50.758;6.096;2024-02-14T07:14:46;8.60;99.90
43043;DHT22;28667;50.758;6.096;2024-02-14T07:17:12;8.70;99.90
43043;DHT22;28667;50.758;6.096;2024-02-14T07:19:38;8.80;99.90
43043;DHT22;28667;50.758;6.096;2024-02-14T07:22:04;8.80;99.90
43043;DHT22;28667;50.758;6.096;2024-02-14T07:24:30;8.80;99.90
43043;DHT22;28667;50.758;6.096;2024-02-14T07:26:55;8.80;99.90
43043;DHT22;28667;50.758;6.096;2024-02-14T07:29:22;8.80;99.90
43043;DHT22;28667;50.758;6.096;2024-02-14T07:31:48;8.90;99.90
43043;DHT22;28667;50.758;6.096;2024-02-14T07:34:13;8.90;99.90
43043;DHT22;28667;50.758;6.096;2024-02-14T07:36:39;8.90;99.90
43043;DHT22;28667;50.758;6.096;2024-02-14T07:39:06;8.90;99.90
43043;DHT22;28667;50.758;6.096;2024-02-14T07:41:32;8.90;99.90
43043;DHT22;28667;50.758;6.096;2024-02-14T07:43:58;9.00;99.90
43043;DHT22;28667;50.758;6.096;2024-02-14T07:46:24;9.00;99.90
43043;DHT22;28667;50.758;6.096;2024-02-14T07:48:51;9.00;99.90
43043;DHT22;28667;50.758;6.096;2024-02-14T07:51:19;9.10;99.90
43043;DHT22;28667;50.758;6.096;2024-02-14T07:53:45;9.10;99.90
43043;DHT22;28667;50.758;6.096;2024-02-14T07:56:11;9.10;99.90
43043;DHT22;28667;50.758;6.096;2024-02-14T07:58:37;9.30;99.90
43043;DHT22;28667;50.758;6.096;2024-02-14T08:01:03;9.30;99.90
43043;DHT22;28667;50.758;6.096;2024-02-14T08:03:29;9.40;99.90
43043;DHT22;28667;50.758;6.096;2024-02-14T08:05:56;9.40;99.90
43043;DHT22;28667;50.758;6.096;2024-02-14T08:08:22;9.40;99.90
43043;DHT22;28667;50.758;6.096;2024-02-14T08:10:50;9.40;99.90
43043;DHT22;28667;50.758;6.096;2024-02-14T08:13:16;9.40;99.90
43043;DHT22;28667;50.758;6.096;2024-02-14T08:15:43;9.50;99.90
43043;DHT22;28667;50.758;6.096;2024-02-14T08:18:08;9.50;99.90
43043;DHT22;28667;50.758;6.096;2024-02-14T08:20:34;9.50;99.90
43043;DHT22;28667;50.758;6.096;2024-02-14T08:23:00;9.60;99.90
43043;DHT22;28667;50.758;6.096;2024-02-14T08:25:25;9.70;99.90
43043;DHT22;28667;50.758;6.096;2024-02-14T08:27:52;9.70;99.90
43043;DHT22;28667;50.758;6.096;2024-02-14T08:30:18;9.80;99.90
43043;DHT22;28667;50.758;6.096;2024-02-14T08:32:45;9.80;99.90
43043;DHT22;28667;50.758;6.096;2024-02-14T08:35:10;9.80;99.90
43043;DHT22;28667;50.758;6.096;2024-02-14T08:37:39;9.90;99.90
43043;DHT22;28667;50.758;6.096;2024-02-14T08:40:06;9.90;99.90
43043;DHT22;28667;50.758;6.096;2024-02-14T08:42:33;10.00;99.90
43043;DHT22;28667;50.758;6.096;2024-02-14T08:44:59;10.10;99.90
43043;DHT22;28667;50.758;6.096;2024-02-14T08:47:25;10.10;99.90
43043;DHT22;28667;50.758;6.096;2024-02-14T08:49:51;10.20;99.90
43043;DHT22;28667;50.758;6.096;2024-02-14T08:52:17;10.30;99.90
43043;DHT22;28667;50.758;6.096;2024-02-14T08:54:44;10.30;99.90
43043;DHT22;28667;50.758;6.096;2024-02-14T08:57:11;10.40;99.90
43043;DHT22;28667;50.758;6.096;2024-02-14T08:59:36;10.50;99.90
43043;DHT22;28667;50.758;6.096;2024-02-14T09:02:02;10.50;99.90
43043;DHT22;28667;50.758;6.096;2024-02-14T09:04:28;10.50;99.90
43043;DHT22;28667;50.758;6.096;2024-02-14T09:06:54;10.50;99.90
43043;DHT22;28667;50.758;6.096;2024-02-14T09:09:19;10.60;99.90
43043;DHT22;28667;50.758;6.096;2024-02-14T09:11:45;10.70;99.90
43043;DHT22;28667;50.758;6.096;2024-02-14T09:14:14;10.70;99.90
43043;DHT22;28667;50.758;6.096;2024-02-14T09:16:40;10.80;99.90
43043;DHT22;28667;50.758;6.096;2024-02-14T09:19:05;10.90;99.90
43043;DHT22;28667;50.758;6.096;2024-02-14T09:21:33;11.00;99.90
43043;DHT22;28667;50.758;6.096;2024-02-14T09:24:03;11.00;99.90
43043;DHT22;28667;50.758;6.096;2024-02-14T09:26:29;11.10;99.90
43043;DHT22;28667;50.758;6.096;2024-02-14T09:28:55;11.10;99.90
43043;DHT22;28667;50.758;6.096;2024-02-14T09:31:21;11.20;99.90
43043;DHT22;28667;50.758;6.096;2024-02-14T09:33:48;11.20;99.90
43043;DHT22;28667;50.758;6.096;2024-02-14T09:36:15;11.20;99.90
43043;DHT22;28667;50.758;6.096;2024-02-14T09:38:42;11.20;99.90
43043;DHT22;28667;50.758;6.096;2024-02-14T09:41:36;11.30;99.90
43043;DHT22;28667;50.758;6.096;2024-02-14T09:44:02;11.30;99.90
43043;DHT22;28667;50.758;6.096;2024-02-14T09:46:28;11.30;99.90
43043;DHT22;28667;50.758;6.096;2024-02-14T09:48:56;11.30;99.90
43043;DHT22;28667;50.758;6.096;2024-02-14T09:51:25;11.20;99.90
43043;DHT22;28667;50.758;6.096;2024-02-14T09:53:51;11.20;99.90
43043;DHT22;28667;50.758;6.096;2024-02-14T09:56:20;11.20;99.90
43043;DHT22;28667;50.758;6.096;2024-02-14T09:58:49;11.20;99.90
43043;DHT22;28667;50.758;6.096;2024-02-14T10:01:21;11.20;99.90
43043;DHT22;28667;50.758;6.096;2024-02-14T10:03:55;11.20;99.90
43043;DHT22;28667;50.758;6.096;2024-02-14T10:06:22;11.10;99.90
43043;DHT22;28667;50.758;6.096;2024-02-14T10:08:48;11.00;99.90
43043;DHT22;28667;50.758;6.096;2024-02-14T10:11:14;11.00;99.90
43043;DHT22;28667;50.758;6.096;2024-02-14T10:13:41;11.00;99.90
43043;DHT22;28667;50.758;6.096;2024-02-14T10:16:07;11.00;99.90
43043;DHT22;28667;50.758;6.096;2024-02-14T10:18:34;11.00;99.90
43043;DHT22;28667;50.758;6.096;2024-02-14T10:21:00;10.90;99.90
43043;DHT22;28667;50.758;6.096;2024-02-14T10:23:28;11.00;99.90
43043;DHT22;28667;50.758;6.096;2024-02-14T10:25:56;10.90;99.90
43043;DHT22;28667;50.758;6.096;2024-02-14T10:28:22;10.90;99.90
43043;DHT22;28667;50.758;6.096;2024-02-14T10:30:49;10.90;99.90
43043;DHT22;28667;50.758;6.096;2024-02-14T10:33:17;11.00;99.90
43043;DHT22;28667;50.758;6.096;2024-02-14T10:35:45;11.00;99.90
43043;DHT22;28667;50.758;6.096;2024-02-14T10:38:11;11.00;99.90
43043;DHT22;28667;50.758;6.096;2024-02-14T10:40:37;11.00;99.90
43043;DHT22;28667;50.758;6.096;2024-02-14T10:43:06;11.10;99.90
43043;DHT22;28667;50.758;6.096;2024-02-14T10:45:32;11.10;99.90
43043;DHT22;28667;50.758;6.096;2024-02-14T10:48:00;11.10;99.90
43043;DHT22;28667;50.758;6.096;2024-02-14T10:50:28;11.20;99.90
43043;DHT22;28667;50.758;6.096;2024-02-14T10:52:57;11.10;99.90
43043;DHT22;28667;50.758;6.096;2024-02-14T10:55:30;11.20;99.90
43043;DHT22;28667;50.758;6.096;2024-02-14T10:57:57;11.20;99.90
43043;DHT22;28667;50.758;6.096;2024-02-14T11:00:23;11.20;99.90
43043;DHT22;28667;50.758;6.096;2024-02-14T11:02:50;11.20;99.90
43043;DHT22;28667;50.758;6.096;2024-02-14T11:05:19;11.20;99.90
43043;DHT22;28667;50.758;6.096;2024-02-14T11:07:47;11.20;99.90
43043;DHT22;28667;50.758;6.096;2024-02-14T11:10:16;11.20;99.90
43043;DHT22;28667;50.758;6.096;2024-02-14T11:12:42;11.20;99.90
43043;DHT22;28667;50.758;6.096;2024-02-14T11:17:43;11.20;99.90
43043;DHT22;28667;50.758;6.096;2024-02-14T11:20:33;11.20;99.90
43043;DHT22;28667;50.758;6.096;2024-02-14T11:23:03;11.20;99.90
43043;DHT22;28667;50.758;6.096;2024-02-14T11:25:31;11.30;99.90
43043;DHT22;28667;50.758;6.096;2024-02-14T11:27:58;11.40;99.90
43043;DHT22;28667;50.758;6.096;2024-02-14T11:30:33;11.40;99.90
43043;DHT22;28667;50.758;6.096;2024-02-14T11:33:28;11.50;99.90
43043;DHT22;28667;50.758;6.096;2024-02-14T11:35:54;11.50;99.90
43043;DHT22;28667;50.758;6.096;2024-02-14T11:38:21;11.60;99.90
43043;DHT22;28667;50.758;6.096;2024-02-14T11:40:47;11.60;99.90
43043;DHT22;28667;50.758;6.096;2024-02-14T11:43:16;11.70;99.90
43043;DHT22;28667;50.758;6.096;2024-02-14T11:45:45;11.70;99.90
43043;DHT22;28667;50.758;6.096;2024-02-14T11:48:15;11.70;99.90
43043;DHT22;28667;50.758;6.096;2024-02-14T11:50:44;11.70;99.90
43043;DHT22;28667;50.758;6.096;2024-02-14T11:53:11;11.70;99.90
43043;DHT22;28667;50.758;6.096;2024-02-14T11:55:38;11.60;99.90
43043;DHT22;28667;50.758;6.096;2024-02-14T12:00:33;11.60;99.90
43043;DHT22;28667;50.758;6.096;2024-02-14T12:03:01;11.60;99.90
43043;DHT22;28667;50.758;6.096;2024-02-14T12:05:27;11.60;99.90
43043;DHT22;28667;50.758;6.096;2024-02-14T12:07:53;11.60;99.90
43043;DHT22;28667;50.758;6.096;2024-02-14T12:10:20;11.60;99.90
43043;DHT22;28667;50.758;6.096;2024-02-14T12:12:47;11.60;99.90
43043;DHT22;28667;50.758;6.096;2024-02-14T12:15:13;11.60;99.90
43043;DHT22;28667;50.758;6.096;2024-02-14T12:17:41;11.50;99.90
43043;DHT22;28667;50.758;6.096;2024-02-14T12:20:11;11.50;99.90
43043;DHT22;28667;50.758;6.096;2024-02-14T12:22:38;11.50;99.90
43043;DHT22;28667;50.758;6.096;2024-02-14T12:25:08;11.40;99.90
43043;DHT22;28667;50.758;6.096;2024-02-14T12:27:37;11.40;99.90
43043;DHT22;28667;50.758;6.096;2024-02-14T12:30:05;11.40;99.90
43043;DHT22;28667;50.758;6.096;2024-02-14T12:32:32;11.30;99.90
43043;DHT22;28667;50.758;6.096;2024-02-14T12:34:59;11.30;99.90
43043;DHT22;28667;50.758;6.096;2024-02-14T12:37:25;11.30;99.90
43043;DHT22;28667;50.758;6.096;2024-02-14T12:39:51;11.30;99.90
43043;DHT22;28667;50.758;6.096;2024-02-14T12:42:16;11.30;99.90
43043;DHT22;28667;50.758;6.096;2024-02-14T12:44:44;11.20;99.90
43043;DHT22;28667;50.758;6.096;2024-02-14T12:47:10;11.20;99.90
43043;DHT22;28667;50.758;6.096;2024-02-14T12:49:36;11.10;99.90
43043;DHT22;28667;50.758;6.096;2024-02-14T12:52:01;11.10;99.90
43043;DHT22;28667;50.758;6.096;2024-02-14T12:54:30;11.10;99.90
43043;DHT22;28667;50.758;6.096;2024-02-14T12:56:55;11.10;99.90
43043;DHT22;28667;50.758;6.096;2024-02-14T12:59:21;11.10;99.90
43043;DHT22;28667;50.758;6.096;2024-02-14T13:01:48;11.10;99.90
43043;DHT22;28667;50.758;6.096;2024-02-14T13:04:13;11.10;99.90
43043;DHT22;28667;50.758;6.096;2024-02-14T13:06:42;11.10;99.90
43043;DHT22;28667;50.758;6.096;2024-02-14T13:09:08;11.10;99.90
43043;DHT22;28667;50.758;6.096;2024-02-14T13:11:34;11.10;99.90
43043;DHT22;28667;50.758;6.096;2024-02-14T13:13:59;11.10;99.90
43043;DHT22;28667;50.758;6.096;2024-02-14T13:16:25;11.10;99.90
43043;DHT22;28667;50.758;6.096;2024-02-14T13:18:51;11.10;99.90
43043;DHT22;28667;50.758;6.096;2024-02-14T13:21:18;11.10;99.90
43043;DHT22;28667;50.758;6.096;2024-02-14T13:23:44;11.10;99.90
43043;DHT22;28667;50.758;6.096;2024-02-14T13:26:10;11.00;99.90
43043;DHT22;28667;50.758;6.096;2024-02-14T13:28:35;11.00;99.90
43043;DHT22;28667;50.758;6.096;2024-02-14T13:31:01;11.00;99.90
43043;DHT22;28667;50.758;6.096;2024-02-14T13:33:27;11.00;99.90
43043;DHT22;28667;50.758;6.096;2024-02-14T13:35:53;11.00;99.90
43043;DHT22;28667;50.758;6.096;2024-02-14T13:38:19;11.00;99.90
43043;DHT22;28667;50.758;6.096;2024-02-14T13:40:45;11.00;99.90
43043;DHT22;28667;50.758;6.096;2024-02-14T13:43:11;11.00;99.90
43043;DHT22;28667;50.758;6.096;2024-02-14T13:45:44;11.00;99.90
43043;DHT22;28667;50.758;6.096;2024-02-14T13:48:10;11.00;99.90
43043;DHT22;28667;50.758;6.096;2024-02-14T13:50:37;11.00;99.90
43043;DHT22;28667;50.758;6.096;2024-02-14T13:53:04;11.10;99.90
43043;DHT22;28667;50.758;6.096;2024-02-14T13:55:30;11.10;99.90
43043;DHT22;28667;50.758;6.096;2024-02-14T13:57:55;11.10;99.90
43043;DHT22;28667;50.758;6.096;2024-02-14T14:00:21;11.10;99.90
43043;DHT22;28667;50.758;6.096;2024-02-14T14:02:47;11.20;99.90
43043;DHT22;28667;50.758;6.096;2024-02-14T14:05:13;11.20;99.90
43043;DHT22;28667;50.758;6.096;2024-02-14T14:07:39;11.20;99.90
43043;DHT22;28667;50.758;6.096;2024-02-14T14:10:06;11.20;99.90
43043;DHT22;28667;50.758;6.096;2024-02-14T14:12:33;11.20;99.90
43043;DHT22;28667;50.758;6.096;2024-02-14T14:14:59;11.20;99.90
43043;DHT22;28667;50.758;6.096;2024-02-14T14:17:24;11.20;99.90
43043;DHT22;28667;50.758;6.096;2024-02-14T14:19:51;11.20;99.90
43043;DHT22;28667;50.758;6.096;2024-02-14T14:22:17;11.30;99.90
43043;DHT22;28667;50.758;6.096;2024-02-14T14:24:43;11.30;99.90
43043;DHT22;28667;50.758;6.096;2024-02-14T14:27:09;11.30;99.90
43043;DHT22;28667;50.758;6.096;2024-02-14T14:29:43;11.30;99.90
43043;DHT22;28667;50.758;6.096;2024-02-14T14:32:09;11.30;99.90
43043;DHT22;28667;50.758;6.096;2024-02-14T14:34:35;11.30;99.90
43043;DHT22;28667;50.758;6.096;2024-02-14T14:37:02;11.20;99.90
43043;DHT22;28667;50.758;6.096;2024-02-14T14:39:28;11.20;99.90
43043;DHT22;28667;50.758;6.096;2024-02-14T14:41:54;11.20;99.90
43043;DHT22;28667;50.758;6.096;2024-02-14T14:44:24;11.20;99.90
43043;DHT22;28667;50.758;6.096;2024-02-14T14:46:50;11.30;99.90
43043;DHT22;28667;50.758;6.096;2024-02-14T14:49:16;11.30;99.90
43043;DHT22;28667;50.758;6.096;2024-02-14T14:51:42;11.20;99.90
43043;DHT22;28667;50.758;6.096;2024-02-14T14:54:09;11.20;99.90
43043;DHT22;28667;50.758;6.096;2024-02-14T14:56:34;11.30;99.90
43043;DHT22;28667;50.758;6.096;2024-02-14T14:59:00;11.30;99.90
43043;DHT22;28667;50.758;6.096;2024-02-14T15:01:32;11.30;99.90
43043;DHT22;28667;50.758;6.096;2024-02-14T15:04:01;11.30;99.90
43043;DHT22;28667;50.758;6.096;2024-02-14T15:06:26;11.20;99.90
43043;DHT22;28667;50.758;6.096;2024-02-14T15:08:52;11.20;99.90
43043;DHT22;28667;50.758;6.096;2024-02-14T15:11:18;11.20;99.90
43043;DHT22;28667;50.758;6.096;2024-02-14T15:13:46;11.20;99.90
43043;DHT22;28667;50.758;6.096;2024-02-14T15:16:13;11.20;99.90
43043;DHT22;28667;50.758;6.096;2024-02-14T15:18:39;11.10;99.90
43043;DHT22;28667;50.758;6.096;2024-02-14T15:21:11;11.10;99.90
43043;DHT22;28667;50.758;6.096;2024-02-14T15:23:37;11.10;99.90
43043;DHT22;28667;50.758;6.096;2024-02-14T15:26:03;11.10;99.90
43043;DHT22;28667;50.758;6.096;2024-02-14T15:28:32;11.10;99.90
43043;DHT22;28667;50.758;6.096;2024-02-14T15:30:59;11.10;99.90
43043;DHT22;28667;50.758;6.096;2024-02-14T15:33:44;11.10;99.90
43043;DHT22;28667;50.758;6.096;2024-02-14T15:36:10;11.10;99.90
43043;DHT22;28667;50.758;6.096;2024-02-14T15:38:40;11.10;99.90
43043;DHT22;28667;50.758;6.096;2024-02-14T15:41:07;11.10;99.90